Airport Name : Tocumen Intl

Other Name : Panama City

ICAO : MPTO

IATA : PTY

FAA :

Latitude : 9.071364

Longitude : -79.383453

Country : Panama

Local Date and Time : 28 Feb 2021 08:06

 

TAF (Terminal Aerodrome Forecast)

TAF MPTO 281100Z 2812/0118 30008KT 9999 SCT018 TEMPO 2816/2820 02018KT TEMPO 2820/2824 04012KT

 

METAR (METeorological Aerodrome Report)

MPTO 281300Z 35003KT 9000 FEW018 26/22 Q1009 NOSIG

MPTO 281200Z VRB02KT 9999 FEW018 24/21 Q1009 NOSIG

MPTO 281100Z VRB02KT 9999 SCT018 24/22 Q1009 NOSIG

MPTO 281000Z 26004KT 9999 SCT018 25/22 Q1008 NOSIG

To Charter a Jet Click here.